createdAt,value
2023-03-20T00:02:23.204Z,12.38
2023-03-20T00:07:27.476Z,12.80
2023-03-20T00:12:32.602Z,11.63
2023-03-20T00:17:35.806Z,11.05
2023-03-20T00:22:38.917Z,10.75
2023-03-20T00:27:43.798Z,11.95
2023-03-20T00:32:47.060Z,11.05
2023-03-20T00:37:50.480Z,12.82
2023-03-20T00:42:58.270Z,12.88
2023-03-20T00:48:01.865Z,12.32
2023-03-20T00:53:05.274Z,13.20
2023-03-20T00:58:11.078Z,13.00
2023-03-20T01:03:17.038Z,12.43
2023-03-20T01:08:21.747Z,13.88
2023-03-20T01:13:27.639Z,16.17
2023-03-20T01:18:30.899Z,17.98
2023-03-20T01:23:34.029Z,18.02
2023-03-20T01:28:39.307Z,14.73
2023-03-20T01:33:42.753Z,13.52
2023-03-20T01:38:46.062Z,13.70
2023-03-20T01:43:53.548Z,13.40
2023-03-20T01:48:58.468Z,12.70
2023-03-20T01:54:06.095Z,13.70
2023-03-20T01:59:14.719Z,11.93
2023-03-20T02:04:22.370Z,12.15
2023-03-20T02:09:31.008Z,10.23
2023-03-20T02:14:37.091Z,10.23
2023-03-20T02:19:56.375Z,10.63
2023-03-20T02:25:16.561Z,9.48
2023-03-20T02:30:35.966Z,8.35
2023-03-20T02:36:07.042Z,6.88
2023-03-20T02:41:15.042Z,5.00
2023-03-20T02:46:25.263Z,6.78
2023-03-20T02:51:32.313Z,5.38
2023-03-20T02:56:39.015Z,5.18
2023-03-20T03:01:43.258Z,5.15
2023-03-20T03:06:48.918Z,4.72
2023-03-20T03:11:54.709Z,5.20
2023-03-20T03:16:58.677Z,6.32
2023-03-20T03:22:04.177Z,5.43
2023-03-20T03:27:13.514Z,6.03
2023-03-20T03:32:22.050Z,7.22
2023-03-20T03:37:29.261Z,7.18
2023-03-20T03:42:34.696Z,7.47
2023-03-20T03:47:39.869Z,7.22
2023-03-20T03:52:44.413Z,7.40
2023-03-20T03:57:51.854Z,7.50
2023-03-20T04:02:57.002Z,8.55
2023-03-20T04:08:00.817Z,9.75
2023-03-20T04:13:05.479Z,12.07
2023-03-20T04:18:08.941Z,12.77
2023-03-20T04:23:15.233Z,13.38
2023-03-20T04:28:20.174Z,15.13
2023-03-20T04:33:32.825Z,15.05
2023-03-20T04:38:41.026Z,13.70
2023-03-20T04:43:45.632Z,15.73
2023-03-20T04:48:49.740Z,13.48
2023-03-20T04:53:53.195Z,14.57
2023-03-20T04:58:57.895Z,15.77
2023-03-20T05:04:01.610Z,13.20
2023-03-20T05:09:09.637Z,12.38
2023-03-20T05:14:15.374Z,11.00
2023-03-20T05:19:36.791Z,10.80
2023-03-20T05:24:56.738Z,10.88
2023-03-20T05:30:19.739Z,12.13
2023-03-20T05:35:46.514Z,10.50
2023-03-20T05:41:15.803Z,10.52
2023-03-20T05:46:37.015Z,10.90
2023-03-20T05:52:06.430Z,10.27
2023-03-20T05:57:35.592Z,10.05
2023-03-20T06:02:58.858Z,10.07
2023-03-20T06:08:21.678Z,10.15
2023-03-20T06:13:25.033Z,10.35
2023-03-20T06:18:29.815Z,11.30
2023-03-20T06:23:33.066Z,11.10
2023-03-20T06:28:38.614Z,10.60
2023-03-20T06:33:45.567Z,11.52
2023-03-20T06:38:49.181Z,10.75
2023-03-20T06:43:53.521Z,9.82
2023-03-20T06:48:59.630Z,10.48
2023-03-20T06:54:02.865Z,9.95
2023-03-20T06:59:07.538Z,10.23
2023-03-20T07:04:12.488Z,10.57
2023-03-20T07:09:23.372Z,9.50
2023-03-20T07:14:26.889Z,9.40
2023-03-20T07:19:38.136Z,10.18
2023-03-20T07:24:42.230Z,10.20
2023-03-20T07:29:47.741Z,10.23
2023-03-20T07:34:55.695Z,9.52
2023-03-20T07:39:59.268Z,9.52
2023-03-20T07:45:09.423Z,8.77
2023-03-20T07:50:13.988Z,8.70
2023-03-20T07:55:18.871Z,9.30
2023-03-20T08:00:22.409Z,8.98
2023-03-20T08:05:27.409Z,9.15
2023-03-20T08:10:30.808Z,9.38
2023-03-20T08:15:34.083Z,8.82
2023-03-20T08:20:38.765Z,8.63
2023-03-20T08:25:42.098Z,7.47
2023-03-20T08:30:45.411Z,8.07
2023-03-20T08:35:57.327Z,7.55
2023-03-20T08:41:00.528Z,7.97
2023-03-20T08:46:03.669Z,7.28
2023-03-20T08:51:08.629Z,8.07
2023-03-20T08:56:12.139Z,7.97
2023-03-20T09:01:16.468Z,7.72
2023-03-20T09:06:21.560Z,7.22
2023-03-20T09:11:24.842Z,7.05
2023-03-20T09:16:28.280Z,6.18
2023-03-20T09:21:32.801Z,6.53
2023-03-20T09:26:36.102Z,5.68
2023-03-20T09:31:39.396Z,4.90
2023-03-20T09:36:43.940Z,5.97
2023-03-20T09:41:56.608Z,5.55
2023-03-20T09:47:19.351Z,4.80
2023-03-20T09:52:27.523Z,4.93
2023-03-20T09:57:32.720Z,5.80
2023-03-20T10:02:40.579Z,5.93
2023-03-20T10:07:45.040Z,6.65
2023-03-20T10:12:51.759Z,6.40
2023-03-20T10:17:58.695Z,7.63
2023-03-20T10:23:07.604Z,6.93
2023-03-20T10:28:13.237Z,6.47
2023-03-20T10:33:29.594Z,6.28
2023-03-20T10:38:37.969Z,5.95
2023-03-20T10:43:43.478Z,5.25
2023-03-20T10:48:48.992Z,4.45
2023-03-20T10:53:56.104Z,4.65
2023-03-20T10:59:00.830Z,3.47
2023-03-20T11:04:04.003Z,4.05
2023-03-20T11:09:13.532Z,4.38
2023-03-20T11:14:19.442Z,4.45
2023-03-20T11:19:23.318Z,4.50
2023-03-20T11:24:35.576Z,4.88
2023-03-20T11:29:39.292Z,4.50
2023-03-20T11:34:43.467Z,4.85
2023-03-20T11:39:57.426Z,4.07
2023-03-20T11:45:02.919Z,4.78
2023-03-20T11:50:07.307Z,4.07
2023-03-20T11:55:24.502Z,3.85
2023-03-20T12:00:29.423Z,3.20
2023-03-20T12:05:34.098Z,4.30
2023-03-20T12:10:41.561Z,3.83
2023-03-20T12:15:47.153Z,4.45
2023-03-20T12:20:56.783Z,4.45
2023-03-20T12:26:04.288Z,4.70
2023-03-20T12:31:13.846Z,4.88
2023-03-20T12:36:17.897Z,5.53
2023-03-20T12:41:25.957Z,5.22
2023-03-20T12:46:32.727Z,6.47
2023-03-20T12:51:41.775Z,11.57
2023-03-20T12:56:52.669Z,6.80
2023-03-20T13:01:57.733Z,7.05
2023-03-20T13:07:01.519Z,6.65
2023-03-20T13:12:10.070Z,6.80
2023-03-20T13:17:16.785Z,6.07
2023-03-20T13:22:24.159Z,7.30
2023-03-20T13:27:34.261Z,7.45
2023-03-20T13:32:46.020Z,8.07
2023-03-20T13:37:50.576Z,7.30
2023-03-20T13:42:56.495Z,6.88
2023-03-20T13:48:02.265Z,6.93
2023-03-20T13:53:09.856Z,7.32
2023-03-20T13:58:20.454Z,10.13
2023-03-20T14:03:26.312Z,5.78
2023-03-20T14:08:36.981Z,8.00
2023-03-20T14:13:45.517Z,7.00
2023-03-20T14:18:49.721Z,7.88
2023-03-20T14:23:58.375Z,8.07
2023-03-20T14:29:03.661Z,8.38
2023-03-20T14:34:16.236Z,8.80
2023-03-20T14:39:40.724Z,8.00
2023-03-20T14:44:52.811Z,8.82
2023-03-20T14:49:59.706Z,8.60
2023-03-20T14:55:16.498Z,8.30
2023-03-20T15:00:22.875Z,8.48
2023-03-20T15:05:29.328Z,8.60
2023-03-20T15:10:35.319Z,8.98
2023-03-20T15:15:40.202Z,8.95
2023-03-20T15:20:45.334Z,8.70
2023-03-20T15:25:49.408Z,8.93
2023-03-20T15:30:56.622Z,8.40
2023-03-20T15:36:00.001Z,9.45
2023-03-20T15:41:05.314Z,8.35
2023-03-20T15:46:19.126Z,9.77
2023-03-20T15:51:24.577Z,7.60
2023-03-20T15:56:28.282Z,8.43
2023-03-20T16:01:33.259Z,8.07
2023-03-20T16:06:36.376Z,7.53
2023-03-20T16:11:40.459Z,8.18
2023-03-20T16:16:45.369Z,9.02
2023-03-20T16:21:51.561Z,7.72
2023-03-20T16:26:54.925Z,8.10
2023-03-20T16:32:00.402Z,8.15
2023-03-20T16:37:07.362Z,7.82
2023-03-20T16:42:13.115Z,8.40
2023-03-20T16:47:20.155Z,8.25
2023-03-20T16:52:26.794Z,8.13
2023-03-20T16:57:34.240Z,8.45
2023-03-20T17:02:41.010Z,8.18
2023-03-20T17:07:44.234Z,9.90
2023-03-20T17:12:48.071Z,9.65
2023-03-20T17:17:52.554Z,8.10
2023-03-20T17:22:55.740Z,11.43
2023-03-20T17:27:58.940Z,8.38
2023-03-20T17:33:03.557Z,8.02
2023-03-20T17:38:06.714Z,8.88
2023-03-20T17:43:11.389Z,7.72
2023-03-20T17:48:17.002Z,7.93
2023-03-20T17:53:20.914Z,8.20
2023-03-20T17:58:24.608Z,7.47
2023-03-20T18:03:29.118Z,7.57
2023-03-20T18:08:32.378Z,8.15
2023-03-20T18:13:35.539Z,7.72
2023-03-20T18:18:39.998Z,7.65
2023-03-20T18:23:43.247Z,7.40
2023-03-20T18:28:46.374Z,8.00
2023-03-20T18:33:52.021Z,7.75
2023-03-20T18:38:55.265Z,8.50
2023-03-20T18:43:58.648Z,8.52
2023-03-20T18:49:03.099Z,7.93
2023-03-20T18:54:07.019Z,8.38
2023-03-20T18:59:12.633Z,8.68
2023-03-20T19:04:17.174Z,9.68
2023-03-20T19:09:20.372Z,9.45
2023-03-20T19:14:25.753Z,8.85
2023-03-20T19:19:30.217Z,9.63
2023-03-20T19:24:33.420Z,9.45
2023-03-20T19:29:36.540Z,11.35
2023-03-20T19:35:29.766Z,9.95
2023-03-20T19:40:05.059Z,10.20
2023-03-20T19:45:09.354Z,11.23
2023-03-20T19:50:25.511Z,11.35
2023-03-20T19:55:28.923Z,14.63
2023-03-20T20:01:11.150Z,10.27
2023-03-20T20:05:59.302Z,12.27
2023-03-20T20:11:02.408Z,12.63
2023-03-20T20:16:05.931Z,13.50
2023-03-20T20:26:38.992Z,14.05
2023-03-20T20:31:44.810Z,13.68
2023-03-20T20:42:12.451Z,15.77
2023-03-20T20:47:15.769Z,16.92
2023-03-20T20:52:20.417Z,16.95
2023-03-20T20:57:23.639Z,16.52
2023-03-20T21:02:27.414Z,18.65
2023-03-20T21:07:32.103Z,18.33
2023-03-20T21:12:45.378Z,17.67
2023-03-20T21:18:01.620Z,19.75
2023-03-20T21:23:06.427Z,19.67
2023-03-20T21:28:09.624Z,19.23
2023-03-20T21:33:12.867Z,21.08
2023-03-20T21:43:41.541Z,26.33
2023-03-20T22:00:05.361Z,20.90
2023-03-20T22:11:10.658Z,21.13
2023-03-20T22:16:27.144Z,20.05
2023-03-20T22:21:48.429Z,19.50
2023-03-20T22:38:17.486Z,18.13
2023-03-20T22:42:57.304Z,16.77
2023-03-20T22:48:06.461Z,17.13
2023-03-20T22:53:09.557Z,16.40
2023-03-20T22:58:15.401Z,15.93
2023-03-20T23:03:33.436Z,18.02
2023-03-20T23:08:49.322Z,17.67
2023-03-20T23:13:57.220Z,20.13
2023-03-20T23:19:00.615Z,19.67
2023-03-20T23:24:03.708Z,19.92
2023-03-20T23:29:08.170Z,16.95
2023-03-20T23:34:11.313Z,17.60
2023-03-20T23:39:15.330Z,18.98
2023-03-20T23:44:19.859Z,18.83
2023-03-20T23:49:23.128Z,19.55
2023-03-20T23:54:26.328Z,19.40
2023-03-20T23:59:31.539Z,20.35
